sensor_id;sensor_type;location;lat;lon;timestamp;P1;durP1;ratioP1;P2;durP2;ratioP2
39948;SDS011;29070;48.102;-1.652;2023-01-24T00:00:21;36.40;;;13.15;;
39948;SDS011;29070;48.102;-1.652;2023-01-24T00:05:22;33.90;;;12.40;;
39948;SDS011;29070;48.102;-1.652;2023-01-24T00:10:22;31.43;;;11.37;;
39948;SDS011;29070;48.102;-1.652;2023-01-24T00:15:24;36.03;;;12.77;;
39948;SDS011;29070;48.102;-1.652;2023-01-24T00:20:25;33.13;;;11.07;;
39948;SDS011;29070;48.102;-1.652;2023-01-24T00:25:25;34.95;;;12.82;;
39948;SDS011;29070;48.102;-1.652;2023-01-24T00:30:26;32.67;;;11.43;;
39948;SDS011;29070;48.102;-1.652;2023-01-24T00:35:26;30.27;;;11.03;;
39948;SDS011;29070;48.102;-1.652;2023-01-24T00:40:26;33.57;;;12.73;;
39948;SDS011;29070;48.102;-1.652;2023-01-24T00:45:27;28.90;;;11.67;;
39948;SDS011;29070;48.102;-1.652;2023-01-24T00:50:27;35.40;;;11.83;;
39948;SDS011;29070;48.102;-1.652;2023-01-24T00:55:27;30.93;;;11.33;;
39948;SDS011;29070;48.102;-1.652;2023-01-24T01:00:28;31.38;;;11.55;;
39948;SDS011;29070;48.102;-1.652;2023-01-24T01:05:28;29.80;;;11.00;;
39948;SDS011;29070;48.102;-1.652;2023-01-24T01:10:29;32.00;;;12.03;;
39948;SDS011;29070;48.102;-1.652;2023-01-24T01:15:29;30.73;;;11.10;;
39948;SDS011;29070;48.102;-1.652;2023-01-24T01:20:29;25.55;;;10.13;;
39948;SDS011;29070;48.102;-1.652;2023-01-24T01:25:30;25.40;;;9.97;;
39948;SDS011;29070;48.102;-1.652;2023-01-24T01:30:31;22.70;;;9.05;;
39948;SDS011;29070;48.102;-1.652;2023-01-24T01:35:31;23.97;;;9.13;;
39948;SDS011;29070;48.102;-1.652;2023-01-24T01:40:31;24.42;;;8.95;;
39948;SDS011;29070;48.102;-1.652;2023-01-24T01:50:36;23.17;;;8.77;;
39948;SDS011;29070;48.102;-1.652;2023-01-24T01:55:44;22.95;;;9.85;;
39948;SDS011;29070;48.102;-1.652;2023-01-24T02:00:50;22.77;;;9.40;;
39948;SDS011;29070;48.102;-1.652;2023-01-24T02:05:50;21.90;;;8.63;;
39948;SDS011;29070;48.102;-1.652;2023-01-24T02:10:51;19.08;;;8.45;;
39948;SDS011;29070;48.102;-1.652;2023-01-24T02:16:11;21.67;;;8.88;;
39948;SDS011;29070;48.102;-1.652;2023-01-24T02:21:15;22.27;;;9.07;;
39948;SDS011;29070;48.102;-1.652;2023-01-24T02:26:20;25.05;;;10.00;;
39948;SDS011;29070;48.102;-1.652;2023-01-24T02:31:23;28.88;;;9.15;;
39948;SDS011;29070;48.102;-1.652;2023-01-24T02:36:25;19.70;;;10.10;;
39948;SDS011;29070;48.102;-1.652;2023-01-24T02:41:30;28.83;;;10.07;;
39948;SDS011;29070;48.102;-1.652;2023-01-24T02:46:36;24.63;;;10.18;;
39948;SDS011;29070;48.102;-1.652;2023-01-24T02:51:37;24.42;;;9.82;;
39948;SDS011;29070;48.102;-1.652;2023-01-24T02:56:56;25.92;;;9.80;;
39948;SDS011;29070;48.102;-1.652;2023-01-24T03:02:15;25.60;;;10.70;;
39948;SDS011;29070;48.102;-1.652;2023-01-24T03:07:16;26.02;;;10.63;;
39948;SDS011;29070;48.102;-1.652;2023-01-24T03:12:16;27.43;;;10.40;;
39948;SDS011;29070;48.102;-1.652;2023-01-24T03:17:35;31.38;;;10.98;;
39948;SDS011;29070;48.102;-1.652;2023-01-24T03:22:54;25.38;;;10.65;;
39948;SDS011;29070;48.102;-1.652;2023-01-24T03:28:13;28.65;;;11.63;;
39948;SDS011;29070;48.102;-1.652;2023-01-24T03:33:32;31.02;;;11.40;;
39948;SDS011;29070;48.102;-1.652;2023-01-24T03:38:51;29.33;;;10.30;;
39948;SDS011;29070;48.102;-1.652;2023-01-24T03:44:10;26.65;;;11.68;;
39948;SDS011;29070;48.102;-1.652;2023-01-24T03:49:10;30.98;;;11.35;;
39948;SDS011;29070;48.102;-1.652;2023-01-24T03:54:11;23.00;;;11.88;;
39948;SDS011;29070;48.102;-1.652;2023-01-24T03:59:11;26.83;;;11.15;;
39948;SDS011;29070;48.102;-1.652;2023-01-24T04:04:11;26.73;;;10.52;;
39948;SDS011;29070;48.102;-1.652;2023-01-24T04:09:12;28.92;;;10.70;;
39948;SDS011;29070;48.102;-1.652;2023-01-24T04:14:12;28.43;;;11.67;;
39948;SDS011;29070;48.102;-1.652;2023-01-24T04:19:13;32.13;;;11.68;;
39948;SDS011;29070;48.102;-1.652;2023-01-24T04:24:13;29.73;;;11.63;;
39948;SDS011;29070;48.102;-1.652;2023-01-24T04:29:13;31.77;;;11.73;;
39948;SDS011;29070;48.102;-1.652;2023-01-24T04:34:14;26.17;;;11.15;;
39948;SDS011;29070;48.102;-1.652;2023-01-24T04:39:14;37.13;;;13.03;;
39948;SDS011;29070;48.102;-1.652;2023-01-24T04:44:15;31.57;;;12.43;;
39948;SDS011;29070;48.102;-1.652;2023-01-24T04:49:15;32.83;;;12.63;;
39948;SDS011;29070;48.102;-1.652;2023-01-24T04:54:16;33.60;;;11.93;;
39948;SDS011;29070;48.102;-1.652;2023-01-24T04:59:17;28.90;;;13.07;;
39948;SDS011;29070;48.102;-1.652;2023-01-24T05:04:17;31.42;;;13.05;;
39948;SDS011;29070;48.102;-1.652;2023-01-24T05:09:18;38.70;;;14.02;;
39948;SDS011;29070;48.102;-1.652;2023-01-24T05:14:18;33.30;;;13.15;;
39948;SDS011;29070;48.102;-1.652;2023-01-24T05:19:19;35.78;;;13.32;;
39948;SDS011;29070;48.102;-1.652;2023-01-24T05:24:19;34.37;;;13.33;;
39948;SDS011;29070;48.102;-1.652;2023-01-24T05:29:19;32.53;;;13.30;;
39948;SDS011;29070;48.102;-1.652;2023-01-24T05:34:20;41.47;;;14.88;;
39948;SDS011;29070;48.102;-1.652;2023-01-24T05:39:20;37.50;;;13.37;;
39948;SDS011;29070;48.102;-1.652;2023-01-24T05:44:20;36.30;;;13.83;;
39948;SDS011;29070;48.102;-1.652;2023-01-24T05:49:21;30.17;;;12.38;;
39948;SDS011;29070;48.102;-1.652;2023-01-24T05:54:21;35.97;;;13.85;;
39948;SDS011;29070;48.102;-1.652;2023-01-24T05:59:22;41.10;;;13.60;;
39948;SDS011;29070;48.102;-1.652;2023-01-24T06:04:22;38.77;;;14.27;;
39948;SDS011;29070;48.102;-1.652;2023-01-24T06:09:23;37.38;;;14.02;;
39948;SDS011;29070;48.102;-1.652;2023-01-24T06:14:23;31.65;;;13.35;;
39948;SDS011;29070;48.102;-1.652;2023-01-24T06:19:24;31.88;;;12.55;;
39948;SDS011;29070;48.102;-1.652;2023-01-24T06:24:25;41.30;;;14.00;;
39948;SDS011;29070;48.102;-1.652;2023-01-24T06:29:26;34.88;;;14.82;;
39948;SDS011;29070;48.102;-1.652;2023-01-24T06:40:07;33.08;;;13.35;;
39948;SDS011;29070;48.102;-1.652;2023-01-24T06:45:11;35.53;;;14.80;;
39948;SDS011;29070;48.102;-1.652;2023-01-24T06:50:19;33.15;;;13.60;;
39948;SDS011;29070;48.102;-1.652;2023-01-24T06:55:21;32.75;;;13.02;;
39948;SDS011;29070;48.102;-1.652;2023-01-24T07:00:21;35.63;;;14.93;;
39948;SDS011;29070;48.102;-1.652;2023-01-24T07:05:21;36.33;;;14.85;;
39948;SDS011;29070;48.102;-1.652;2023-01-24T07:10:22;36.37;;;13.73;;
39948;SDS011;29070;48.102;-1.652;2023-01-24T07:15:22;38.50;;;14.75;;
39948;SDS011;29070;48.102;-1.652;2023-01-24T07:20:22;35.45;;;14.05;;
39948;SDS011;29070;48.102;-1.652;2023-01-24T07:25:23;73.70;;;18.65;;
39948;SDS011;29070;48.102;-1.652;2023-01-24T07:30:24;33.85;;;14.60;;
39948;SDS011;29070;48.102;-1.652;2023-01-24T07:35:25;36.78;;;16.10;;
39948;SDS011;29070;48.102;-1.652;2023-01-24T07:40:25;35.55;;;13.13;;
39948;SDS011;29070;48.102;-1.652;2023-01-24T07:45:26;36.53;;;14.07;;
39948;SDS011;29070;48.102;-1.652;2023-01-24T07:50:27;36.25;;;13.50;;
39948;SDS011;29070;48.102;-1.652;2023-01-24T07:55:30;40.28;;;13.65;;
39948;SDS011;29070;48.102;-1.652;2023-01-24T08:00:30;35.05;;;14.18;;
39948;SDS011;29070;48.102;-1.652;2023-01-24T08:05:31;36.50;;;14.20;;
39948;SDS011;29070;48.102;-1.652;2023-01-24T08:10:31;39.87;;;14.23;;
39948;SDS011;29070;48.102;-1.652;2023-01-24T08:15:32;36.20;;;13.97;;
39948;SDS011;29070;48.102;-1.652;2023-01-24T08:20:32;36.50;;;13.77;;
39948;SDS011;29070;48.102;-1.652;2023-01-24T08:25:32;37.80;;;13.57;;
39948;SDS011;29070;48.102;-1.652;2023-01-24T08:30:33;38.65;;;14.57;;
39948;SDS011;29070;48.102;-1.652;2023-01-24T08:35:34;33.03;;;13.03;;
39948;SDS011;29070;48.102;-1.652;2023-01-24T08:40:34;40.30;;;14.90;;
39948;SDS011;29070;48.102;-1.652;2023-01-24T08:45:35;39.90;;;14.00;;
39948;SDS011;29070;48.102;-1.652;2023-01-24T08:50:35;45.88;;;15.68;;
39948;SDS011;29070;48.102;-1.652;2023-01-24T08:55:36;49.40;;;17.23;;
39948;SDS011;29070;48.102;-1.652;2023-01-24T09:00:36;43.03;;;15.77;;
39948;SDS011;29070;48.102;-1.652;2023-01-24T09:05:36;41.03;;;14.60;;
39948;SDS011;29070;48.102;-1.652;2023-01-24T09:10:38;41.60;;;14.35;;
39948;SDS011;29070;48.102;-1.652;2023-01-24T09:15:38;46.35;;;16.48;;
39948;SDS011;29070;48.102;-1.652;2023-01-24T09:20:39;45.92;;;16.80;;
39948;SDS011;29070;48.102;-1.652;2023-01-24T09:25:48;49.57;;;16.83;;
39948;SDS011;29070;48.102;-1.652;2023-01-24T09:30:50;47.33;;;16.90;;
39948;SDS011;29070;48.102;-1.652;2023-01-24T09:35:54;53.60;;;17.55;;
39948;SDS011;29070;48.102;-1.652;2023-01-24T09:51:34;52.35;;;18.52;;
39948;SDS011;29070;48.102;-1.652;2023-01-24T09:56:44;52.70;;;17.73;;
39948;SDS011;29070;48.102;-1.652;2023-01-24T10:01:50;48.35;;;16.80;;
39948;SDS011;29070;48.102;-1.652;2023-01-24T10:28:45;52.75;;;18.63;;
39948;SDS011;29070;48.102;-1.652;2023-01-24T10:33:50;45.70;;;15.90;;
39948;SDS011;29070;48.102;-1.652;2023-01-24T10:38:55;44.47;;;17.15;;
39948;SDS011;29070;48.102;-1.652;2023-01-24T10:44:03;43.93;;;16.63;;
39948;SDS011;29070;48.102;-1.652;2023-01-24T10:49:31;45.53;;;17.05;;
39948;SDS011;29070;48.102;-1.652;2023-01-24T10:54:42;50.70;;;17.85;;
39948;SDS011;29070;48.102;-1.652;2023-01-24T10:59:43;49.53;;;17.77;;
39948;SDS011;29070;48.102;-1.652;2023-01-24T11:04:43;49.85;;;17.23;;
39948;SDS011;29070;48.102;-1.652;2023-01-24T11:09:44;50.63;;;18.87;;
39948;SDS011;29070;48.102;-1.652;2023-01-24T11:14:44;52.30;;;17.43;;
39948;SDS011;29070;48.102;-1.652;2023-01-24T11:19:48;50.50;;;18.35;;
39948;SDS011;29070;48.102;-1.652;2023-01-24T11:24:59;48.92;;;18.38;;
39948;SDS011;29070;48.102;-1.652;2023-01-24T11:30:14;49.22;;;16.33;;
39948;SDS011;29070;48.102;-1.652;2023-01-24T11:35:17;42.97;;;15.40;;
39948;SDS011;29070;48.102;-1.652;2023-01-24T11:51:05;52.08;;;17.42;;
39948;SDS011;29070;48.102;-1.652;2023-01-24T12:22:57;52.83;;;21.05;;
39948;SDS011;29070;48.102;-1.652;2023-01-24T12:28:04;60.25;;;21.25;;
39948;SDS011;29070;48.102;-1.652;2023-01-24T12:33:54;58.22;;;21.75;;
39948;SDS011;29070;48.102;-1.652;2023-01-24T12:54:38;41.55;;;15.55;;
39948;SDS011;29070;48.102;-1.652;2023-01-24T12:59:44;49.70;;;17.73;;
39948;SDS011;29070;48.102;-1.652;2023-01-24T13:04:55;39.25;;;17.13;;
39948;SDS011;29070;48.102;-1.652;2023-01-24T13:36:50;59.85;;;24.30;;
39948;SDS011;29070;48.102;-1.652;2023-01-24T13:41:57;45.63;;;15.60;;
39948;SDS011;29070;48.102;-1.652;2023-01-24T14:08:00;45.33;;;16.92;;
39948;SDS011;29070;48.102;-1.652;2023-01-24T14:13:03;42.38;;;16.92;;
39948;SDS011;29070;48.102;-1.652;2023-01-24T14:18:38;52.92;;;19.30;;
39948;SDS011;29070;48.102;-1.652;2023-01-24T14:23:46;45.45;;;18.35;;
39948;SDS011;29070;48.102;-1.652;2023-01-24T14:28:51;65.07;;;24.20;;
39948;SDS011;29070;48.102;-1.652;2023-01-24T14:33:57;55.20;;;21.77;;
39948;SDS011;29070;48.102;-1.652;2023-01-24T14:44:28;48.33;;;17.92;;
39948;SDS011;29070;48.102;-1.652;2023-01-24T14:49:35;47.50;;;16.95;;
39948;SDS011;29070;48.102;-1.652;2023-01-24T14:54:45;45.95;;;17.23;;
39948;SDS011;29070;48.102;-1.652;2023-01-24T14:59:58;44.55;;;16.73;;
39948;SDS011;29070;48.102;-1.652;2023-01-24T15:05:01;46.17;;;17.70;;
39948;SDS011;29070;48.102;-1.652;2023-01-24T15:10:12;46.85;;;19.85;;
39948;SDS011;29070;48.102;-1.652;2023-01-24T15:15:15;44.60;;;16.00;;
39948;SDS011;29070;48.102;-1.652;2023-01-24T15:20:21;51.78;;;16.98;;
39948;SDS011;29070;48.102;-1.652;2023-01-24T15:30:32;41.30;;;16.17;;
39948;SDS011;29070;48.102;-1.652;2023-01-24T15:35:36;43.70;;;16.65;;
39948;SDS011;29070;48.102;-1.652;2023-01-24T15:57:22;39.85;;;16.10;;
39948;SDS011;29070;48.102;-1.652;2023-01-24T16:02:23;42.78;;;16.80;;
39948;SDS011;29070;48.102;-1.652;2023-01-24T16:07:23;51.22;;;19.27;;
39948;SDS011;29070;48.102;-1.652;2023-01-24T16:12:24;42.78;;;16.35;;
39948;SDS011;29070;48.102;-1.652;2023-01-24T16:17:25;41.20;;;15.90;;
39948;SDS011;29070;48.102;-1.652;2023-01-24T16:22:26;42.42;;;16.17;;
39948;SDS011;29070;48.102;-1.652;2023-01-24T16:27:28;38.20;;;15.02;;
39948;SDS011;29070;48.102;-1.652;2023-01-24T16:32:31;42.75;;;16.05;;
39948;SDS011;29070;48.102;-1.652;2023-01-24T16:37:32;38.45;;;13.73;;
39948;SDS011;29070;48.102;-1.652;2023-01-24T16:42:33;39.73;;;15.07;;
39948;SDS011;29070;48.102;-1.652;2023-01-24T16:47:39;39.13;;;14.40;;
39948;SDS011;29070;48.102;-1.652;2023-01-24T16:52:39;39.10;;;14.70;;
39948;SDS011;29070;48.102;-1.652;2023-01-24T16:57:41;38.13;;;14.50;;
39948;SDS011;29070;48.102;-1.652;2023-01-24T17:02:42;41.17;;;15.30;;
39948;SDS011;29070;48.102;-1.652;2023-01-24T17:07:43;35.72;;;14.05;;
39948;SDS011;29070;48.102;-1.652;2023-01-24T17:12:43;39.47;;;15.20;;
39948;SDS011;29070;48.102;-1.652;2023-01-24T17:17:44;42.60;;;14.75;;
39948;SDS011;29070;48.102;-1.652;2023-01-24T17:22:44;38.50;;;13.90;;
39948;SDS011;29070;48.102;-1.652;2023-01-24T17:27:45;41.50;;;15.52;;
39948;SDS011;29070;48.102;-1.652;2023-01-24T17:32:45;43.33;;;16.15;;
39948;SDS011;29070;48.102;-1.652;2023-01-24T17:37:46;44.70;;;16.00;;
39948;SDS011;29070;48.102;-1.652;2023-01-24T17:42:46;44.37;;;15.57;;
39948;SDS011;29070;48.102;-1.652;2023-01-24T17:47:46;38.50;;;13.88;;
39948;SDS011;29070;48.102;-1.652;2023-01-24T17:52:47;39.20;;;15.13;;
39948;SDS011;29070;48.102;-1.652;2023-01-24T17:57:47;35.80;;;15.23;;
39948;SDS011;29070;48.102;-1.652;2023-01-24T18:02:48;40.67;;;14.30;;
39948;SDS011;29070;48.102;-1.652;2023-01-24T18:07:48;38.47;;;13.68;;
39948;SDS011;29070;48.102;-1.652;2023-01-24T18:12:49;40.00;;;13.70;;
39948;SDS011;29070;48.102;-1.652;2023-01-24T18:17:49;38.17;;;13.83;;
39948;SDS011;29070;48.102;-1.652;2023-01-24T18:22:49;39.77;;;14.63;;
39948;SDS011;29070;48.102;-1.652;2023-01-24T18:27:52;40.90;;;13.75;;
39948;SDS011;29070;48.102;-1.652;2023-01-24T18:32:52;40.63;;;14.37;;
39948;SDS011;29070;48.102;-1.652;2023-01-24T18:37:53;48.00;;;15.63;;
39948;SDS011;29070;48.102;-1.652;2023-01-24T18:42:53;38.75;;;13.40;;
39948;SDS011;29070;48.102;-1.652;2023-01-24T18:47:54;36.33;;;13.65;;
39948;SDS011;29070;48.102;-1.652;2023-01-24T18:52:54;39.33;;;13.83;;
39948;SDS011;29070;48.102;-1.652;2023-01-24T18:57:56;40.30;;;13.82;;
39948;SDS011;29070;48.102;-1.652;2023-01-24T19:02:57;32.00;;;13.67;;
39948;SDS011;29070;48.102;-1.652;2023-01-24T19:07:57;42.73;;;14.33;;
39948;SDS011;29070;48.102;-1.652;2023-01-24T19:12:57;41.43;;;14.53;;
39948;SDS011;29070;48.102;-1.652;2023-01-24T19:17:58;43.40;;;14.40;;
39948;SDS011;29070;48.102;-1.652;2023-01-24T19:22:58;45.38;;;15.38;;
39948;SDS011;29070;48.102;-1.652;2023-01-24T19:27:59;42.97;;;15.23;;
39948;SDS011;29070;48.102;-1.652;2023-01-24T19:32:59;49.83;;;16.30;;
39948;SDS011;29070;48.102;-1.652;2023-01-24T19:37:59;48.58;;;15.27;;
39948;SDS011;29070;48.102;-1.652;2023-01-24T19:43:00;48.93;;;17.27;;
39948;SDS011;29070;48.102;-1.652;2023-01-24T19:48:00;40.80;;;15.93;;
39948;SDS011;29070;48.102;-1.652;2023-01-24T19:53:03;44.40;;;16.60;;
39948;SDS011;29070;48.102;-1.652;2023-01-24T19:58:05;45.08;;;17.27;;
39948;SDS011;29070;48.102;-1.652;2023-01-24T20:03:06;41.20;;;15.18;;
39948;SDS011;29070;48.102;-1.652;2023-01-24T20:08:07;57.10;;;19.40;;
39948;SDS011;29070;48.102;-1.652;2023-01-24T20:13:09;54.30;;;19.00;;
39948;SDS011;29070;48.102;-1.652;2023-01-24T20:18:14;45.50;;;16.08;;
39948;SDS011;29070;48.102;-1.652;2023-01-24T20:23:15;55.90;;;23.60;;
39948;SDS011;29070;48.102;-1.652;2023-01-24T20:28:15;44.40;;;16.88;;
39948;SDS011;29070;48.102;-1.652;2023-01-24T20:33:17;38.67;;;14.73;;
39948;SDS011;29070;48.102;-1.652;2023-01-24T20:38:17;43.23;;;15.13;;
39948;SDS011;29070;48.102;-1.652;2023-01-24T20:43:18;41.67;;;15.40;;
39948;SDS011;29070;48.102;-1.652;2023-01-24T20:48:18;40.47;;;15.30;;
39948;SDS011;29070;48.102;-1.652;2023-01-24T20:53:19;44.53;;;15.32;;
39948;SDS011;29070;48.102;-1.652;2023-01-24T20:58:19;44.53;;;15.20;;
39948;SDS011;29070;48.102;-1.652;2023-01-24T21:03:22;38.38;;;13.90;;
39948;SDS011;29070;48.102;-1.652;2023-01-24T21:08:23;37.25;;;13.35;;
39948;SDS011;29070;48.102;-1.652;2023-01-24T21:13:24;38.27;;;13.37;;
39948;SDS011;29070;48.102;-1.652;2023-01-24T21:18:25;34.20;;;12.68;;
39948;SDS011;29070;48.102;-1.652;2023-01-24T21:23:26;34.88;;;12.90;;
39948;SDS011;29070;48.102;-1.652;2023-01-24T21:28:27;39.92;;;13.07;;
39948;SDS011;29070;48.102;-1.652;2023-01-24T21:33:27;43.03;;;14.40;;
39948;SDS011;29070;48.102;-1.652;2023-01-24T21:38:28;39.72;;;14.23;;
39948;SDS011;29070;48.102;-1.652;2023-01-24T21:43:29;35.50;;;13.40;;
39948;SDS011;29070;48.102;-1.652;2023-01-24T21:48:30;43.67;;;15.63;;
39948;SDS011;29070;48.102;-1.652;2023-01-24T21:53:49;37.78;;;12.93;;
39948;SDS011;29070;48.102;-1.652;2023-01-24T21:59:01;38.47;;;13.63;;
39948;SDS011;29070;48.102;-1.652;2023-01-24T22:04:01;37.33;;;13.27;;
39948;SDS011;29070;48.102;-1.652;2023-01-24T22:09:02;45.35;;;16.85;;
39948;SDS011;29070;48.102;-1.652;2023-01-24T22:14:02;39.67;;;15.00;;
39948;SDS011;29070;48.102;-1.652;2023-01-24T22:19:03;43.50;;;14.45;;
39948;SDS011;29070;48.102;-1.652;2023-01-24T22:24:25;37.15;;;14.07;;
39948;SDS011;29070;48.102;-1.652;2023-01-24T22:29:42;39.45;;;13.25;;
39948;SDS011;29070;48.102;-1.652;2023-01-24T22:34:43;37.03;;;12.75;;
39948;SDS011;29070;48.102;-1.652;2023-01-24T22:39:44;33.83;;;13.13;;
39948;SDS011;29070;48.102;-1.652;2023-01-24T22:44:45;34.33;;;13.13;;
39948;SDS011;29070;48.102;-1.652;2023-01-24T22:49:45;34.80;;;13.02;;
39948;SDS011;29070;48.102;-1.652;2023-01-24T22:54:46;35.13;;;12.38;;
39948;SDS011;29070;48.102;-1.652;2023-01-24T22:59:47;29.40;;;10.53;;
39948;SDS011;29070;48.102;-1.652;2023-01-24T23:04:47;37.50;;;11.82;;
39948;SDS011;29070;48.102;-1.652;2023-01-24T23:09:48;31.33;;;11.10;;
39948;SDS011;29070;48.102;-1.652;2023-01-24T23:14:48;39.50;;;11.95;;
39948;SDS011;29070;48.102;-1.652;2023-01-24T23:20:08;42.33;;;13.27;;
39948;SDS011;29070;48.102;-1.652;2023-01-24T23:25:29;41.50;;;13.90;;
39948;SDS011;29070;48.102;-1.652;2023-01-24T23:35:31;44.10;;;14.68;;
39948;SDS011;29070;48.102;-1.652;2023-01-24T23:40:31;45.33;;;15.55;;
39948;SDS011;29070;48.102;-1.652;2023-01-24T23:45:31;48.77;;;15.13;;
39948;SDS011;29070;48.102;-1.652;2023-01-24T23:50:32;48.60;;;15.30;;
39948;SDS011;29070;48.102;-1.652;2023-01-24T23:55:32;49.47;;;15.37;;
